sensor_id;sensor_type;location;lat;lon;timestamp;temperature;humidity
18297;DHT22;18066;52.106;5.534;2023-04-28T00:01:41;10.10;99.90
18297;DHT22;18066;52.106;5.534;2023-04-28T00:04:09;10.10;99.90
18297;DHT22;18066;52.106;5.534;2023-04-28T00:06:36;10.20;99.90
18297;DHT22;18066;52.106;5.534;2023-04-28T00:09:03;10.30;99.90
18297;DHT22;18066;52.106;5.534;2023-04-28T00:11:31;10.40;99.90
18297;DHT22;18066;52.106;5.534;2023-04-28T00:13:57;10.50;99.90
18297;DHT22;18066;52.106;5.534;2023-04-28T00:16:24;10.60;99.90
18297;DHT22;18066;52.106;5.534;2023-04-28T00:18:51;10.60;99.90
18297;DHT22;18066;52.106;5.534;2023-04-28T00:21:18;10.70;99.90
18297;DHT22;18066;52.106;5.534;2023-04-28T00:23:44;10.60;99.90
18297;DHT22;18066;52.106;5.534;2023-04-28T00:26:11;10.70;99.90
18297;DHT22;18066;52.106;5.534;2023-04-28T00:28:39;10.70;99.90
18297;DHT22;18066;52.106;5.534;2023-04-28T00:31:09;10.70;99.90
18297;DHT22;18066;52.106;5.534;2023-04-28T00:33:37;10.50;99.90
18297;DHT22;18066;52.106;5.534;2023-04-28T00:36:04;10.40;99.90
18297;DHT22;18066;52.106;5.534;2023-04-28T00:38:31;10.40;99.90
18297;DHT22;18066;52.106;5.534;2023-04-28T00:40:58;10.40;99.90
18297;DHT22;18066;52.106;5.534;2023-04-28T00:43:24;10.40;99.90
18297;DHT22;18066;52.106;5.534;2023-04-28T00:45:53;10.20;99.90
18297;DHT22;18066;52.106;5.534;2023-04-28T00:48:20;10.10;99.90
18297;DHT22;18066;52.106;5.534;2023-04-28T00:50:47;10.20;99.90
18297;DHT22;18066;52.106;5.534;2023-04-28T00:53:14;10.20;99.90
18297;DHT22;18066;52.106;5.534;2023-04-28T00:55:41;10.40;99.90
18297;DHT22;18066;52.106;5.534;2023-04-28T00:58:08;10.50;99.90
18297;DHT22;18066;52.106;5.534;2023-04-28T01:00:35;10.60;99.90
18297;DHT22;18066;52.106;5.534;2023-04-28T01:03:04;10.60;99.90
18297;DHT22;18066;52.106;5.534;2023-04-28T01:05:31;10.60;99.90
18297;DHT22;18066;52.106;5.534;2023-04-28T01:07:58;10.60;99.90
18297;DHT22;18066;52.106;5.534;2023-04-28T01:10:25;10.60;99.90
18297;DHT22;18066;52.106;5.534;2023-04-28T01:12:52;10.60;99.90
18297;DHT22;18066;52.106;5.534;2023-04-28T01:15:19;10.50;99.90
18297;DHT22;18066;52.106;5.534;2023-04-28T01:17:46;10.40;99.90
18297;DHT22;18066;52.106;5.534;2023-04-28T01:20:15;10.30;99.90
18297;DHT22;18066;52.106;5.534;2023-04-28T01:22:42;10.20;99.90
18297;DHT22;18066;52.106;5.534;2023-04-28T01:25:10;10.10;99.90
18297;DHT22;18066;52.106;5.534;2023-04-28T01:27:37;10.10;99.90
18297;DHT22;18066;52.106;5.534;2023-04-28T01:30:05;10.10;99.90
18297;DHT22;18066;52.106;5.534;2023-04-28T01:32:32;10.20;99.90
18297;DHT22;18066;52.106;5.534;2023-04-28T01:34:59;10.30;99.90
18297;DHT22;18066;52.106;5.534;2023-04-28T01:37:26;10.40;99.90
18297;DHT22;18066;52.106;5.534;2023-04-28T01:39:52;10.40;99.90
18297;DHT22;18066;52.106;5.534;2023-04-28T01:42:21;10.50;99.90
18297;DHT22;18066;52.106;5.534;2023-04-28T01:44:50;10.40;99.90
18297;DHT22;18066;52.106;5.534;2023-04-28T01:47:17;10.30;99.90
18297;DHT22;18066;52.106;5.534;2023-04-28T01:49:44;10.30;99.90
18297;DHT22;18066;52.106;5.534;2023-04-28T01:52:12;10.20;99.90
18297;DHT22;18066;52.106;5.534;2023-04-28T01:54:39;10.10;99.90
18297;DHT22;18066;52.106;5.534;2023-04-28T01:57:06;10.10;99.90
18297;DHT22;18066;52.106;5.534;2023-04-28T01:59:34;10.00;99.90
18297;DHT22;18066;52.106;5.534;2023-04-28T02:02:01;10.00;99.90
18297;DHT22;18066;52.106;5.534;2023-04-28T02:04:27;10.00;99.90
18297;DHT22;18066;52.106;5.534;2023-04-28T02:06:54;10.00;99.90
18297;DHT22;18066;52.106;5.534;2023-04-28T02:09:21;10.00;99.90
18297;DHT22;18066;52.106;5.534;2023-04-28T02:11:48;9.90;99.90
18297;DHT22;18066;52.106;5.534;2023-04-28T02:14:15;9.90;99.90
18297;DHT22;18066;52.106;5.534;2023-04-28T02:16:44;9.90;99.90
18297;DHT22;18066;52.106;5.534;2023-04-28T02:19:10;9.80;99.90
18297;DHT22;18066;52.106;5.534;2023-04-28T02:21:37;10.00;99.90
18297;DHT22;18066;52.106;5.534;2023-04-28T02:24:05;10.00;99.90
18297;DHT22;18066;52.106;5.534;2023-04-28T02:26:32;10.10;99.90
18297;DHT22;18066;52.106;5.534;2023-04-28T02:28:59;10.10;99.90
18297;DHT22;18066;52.106;5.534;2023-04-28T02:31:28;10.00;99.90
18297;DHT22;18066;52.106;5.534;2023-04-28T02:33:57;10.00;99.90
18297;DHT22;18066;52.106;5.534;2023-04-28T02:36:24;9.90;99.90
18297;DHT22;18066;52.106;5.534;2023-04-28T02:38:52;9.80;99.90
18297;DHT22;18066;52.106;5.534;2023-04-28T02:41:19;9.80;99.90
18297;DHT22;18066;52.106;5.534;2023-04-28T02:43:45;9.70;99.90
18297;DHT22;18066;52.106;5.534;2023-04-28T02:46:12;9.80;99.90
18297;DHT22;18066;52.106;5.534;2023-04-28T02:48:39;9.90;99.90
18297;DHT22;18066;52.106;5.534;2023-04-28T02:51:07;9.80;99.90
18297;DHT22;18066;52.106;5.534;2023-04-28T02:53:34;9.80;99.90
18297;DHT22;18066;52.106;5.534;2023-04-28T02:56:01;9.70;99.90
18297;DHT22;18066;52.106;5.534;2023-04-28T02:58:29;9.80;99.90
18297;DHT22;18066;52.106;5.534;2023-04-28T03:00:55;9.60;99.90
18297;DHT22;18066;52.106;5.534;2023-04-28T03:03:22;9.50;99.90
18297;DHT22;18066;52.106;5.534;2023-04-28T03:05:49;9.50;99.90
18297;DHT22;18066;52.106;5.534;2023-04-28T03:08:17;9.60;99.90
18297;DHT22;18066;52.106;5.534;2023-04-28T03:10:45;9.60;99.90
18297;DHT22;18066;52.106;5.534;2023-04-28T03:13:12;9.60;99.90
18297;DHT22;18066;52.106;5.534;2023-04-28T03:15:38;9.70;99.90
18297;DHT22;18066;52.106;5.534;2023-04-28T03:18:05;9.70;99.90
18297;DHT22;18066;52.106;5.534;2023-04-28T03:20:32;9.70;99.90
18297;DHT22;18066;52.106;5.534;2023-04-28T03:22:59;9.70;99.90
18297;DHT22;18066;52.106;5.534;2023-04-28T03:25:28;9.70;99.90
18297;DHT22;18066;52.106;5.534;2023-04-28T03:27:55;9.80;99.90
18297;DHT22;18066;52.106;5.534;2023-04-28T03:30:22;9.90;99.90
18297;DHT22;18066;52.106;5.534;2023-04-28T03:32:49;9.90;99.90
18297;DHT22;18066;52.106;5.534;2023-04-28T03:35:16;9.80;99.90
18297;DHT22;18066;52.106;5.534;2023-04-28T03:37:42;9.70;99.90
18297;DHT22;18066;52.106;5.534;2023-04-28T03:40:10;9.80;99.90
18297;DHT22;18066;52.106;5.534;2023-04-28T03:42:38;9.70;99.90
18297;DHT22;18066;52.106;5.534;2023-04-28T03:45:06;9.70;99.90
18297;DHT22;18066;52.106;5.534;2023-04-28T03:47:33;9.60;99.90
18297;DHT22;18066;52.106;5.534;2023-04-28T03:50:00;9.70;99.90
18297;DHT22;18066;52.106;5.534;2023-04-28T03:52:26;9.80;99.90
18297;DHT22;18066;52.106;5.534;2023-04-28T03:54:53;9.90;99.90
18297;DHT22;18066;52.106;5.534;2023-04-28T03:57:20;10.00;99.90
18297;DHT22;18066;52.106;5.534;2023-04-28T03:59:48;10.20;99.90
18297;DHT22;18066;52.106;5.534;2023-04-28T04:02:15;10.20;99.90
18297;DHT22;18066;52.106;5.534;2023-04-28T04:04:42;10.40;99.90
18297;DHT22;18066;52.106;5.534;2023-04-28T04:07:09;10.50;99.90
18297;DHT22;18066;52.106;5.534;2023-04-28T04:09:36;10.60;99.90
18297;DHT22;18066;52.106;5.534;2023-04-28T04:12:04;10.60;99.90
18297;DHT22;18066;52.106;5.534;2023-04-28T04:14:30;10.60;99.90
18297;DHT22;18066;52.106;5.534;2023-04-28T04:16:59;10.60;99.90
18297;DHT22;18066;52.106;5.534;2023-04-28T04:19:25;10.60;99.90
18297;DHT22;18066;52.106;5.534;2023-04-28T04:21:52;10.60;99.90
18297;DHT22;18066;52.106;5.534;2023-04-28T04:24:19;10.70;99.90
18297;DHT22;18066;52.106;5.534;2023-04-28T04:26:46;10.70;99.90
18297;DHT22;18066;52.106;5.534;2023-04-28T04:29:13;10.70;99.90
18297;DHT22;18066;52.106;5.534;2023-04-28T04:31:39;10.60;99.90
18297;DHT22;18066;52.106;5.534;2023-04-28T04:34:08;10.70;99.90
18297;DHT22;18066;52.106;5.534;2023-04-28T04:36:35;10.70;99.90
18297;DHT22;18066;52.106;5.534;2023-04-28T04:39:02;10.70;99.90
18297;DHT22;18066;52.106;5.534;2023-04-28T04:41:29;10.80;99.90
18297;DHT22;18066;52.106;5.534;2023-04-28T04:43:56;10.90;99.90
18297;DHT22;18066;52.106;5.534;2023-04-28T04:46:22;10.80;99.90
18297;DHT22;18066;52.106;5.534;2023-04-28T04:48:49;10.90;99.90
18297;DHT22;18066;52.106;5.534;2023-04-28T04:51:18;10.80;99.90
18297;DHT22;18066;52.106;5.534;2023-04-28T04:53:44;10.90;99.90
18297;DHT22;18066;52.106;5.534;2023-04-28T04:56:11;11.00;99.90
18297;DHT22;18066;52.106;5.534;2023-04-28T04:58:38;11.00;99.90
18297;DHT22;18066;52.106;5.534;2023-04-28T05:01:06;11.10;99.90
18297;DHT22;18066;52.106;5.534;2023-04-28T05:03:33;11.10;99.90
18297;DHT22;18066;52.106;5.534;2023-04-28T05:06:00;11.20;99.90
18297;DHT22;18066;52.106;5.534;2023-04-28T05:08:29;11.20;99.90
18297;DHT22;18066;52.106;5.534;2023-04-28T05:10:56;11.20;99.90
18297;DHT22;18066;52.106;5.534;2023-04-28T05:13:23;11.30;99.90
18297;DHT22;18066;52.106;5.534;2023-04-28T05:15:50;11.30;99.90
18297;DHT22;18066;52.106;5.534;2023-04-28T05:18:17;11.40;99.90
18297;DHT22;18066;52.106;5.534;2023-04-28T05:20:44;11.40;99.90
18297;DHT22;18066;52.106;5.534;2023-04-28T05:23:10;11.30;99.90
18297;DHT22;18066;52.106;5.534;2023-04-28T05:25:39;11.50;99.90
18297;DHT22;18066;52.106;5.534;2023-04-28T05:28:08;11.50;99.90
18297;DHT22;18066;52.106;5.534;2023-04-28T05:30:34;11.50;99.90
18297;DHT22;18066;52.106;5.534;2023-04-28T05:33:01;11.50;99.90
18297;DHT22;18066;52.106;5.534;2023-04-28T05:35:28;11.50;99.90
18297;DHT22;18066;52.106;5.534;2023-04-28T05:37:55;11.50;99.90
18297;DHT22;18066;52.106;5.534;2023-04-28T05:40:22;11.40;99.90
18297;DHT22;18066;52.106;5.534;2023-04-28T05:42:51;11.40;99.90
18297;DHT22;18066;52.106;5.534;2023-04-28T05:45:17;11.40;99.90
18297;DHT22;18066;52.106;5.534;2023-04-28T05:47:44;11.40;99.90
18297;DHT22;18066;52.106;5.534;2023-04-28T05:50:11;11.40;99.90
18297;DHT22;18066;52.106;5.534;2023-04-28T05:52:38;11.40;99.90
18297;DHT22;18066;52.106;5.534;2023-04-28T05:55:05;11.40;99.90
18297;DHT22;18066;52.106;5.534;2023-04-28T05:57:32;11.40;99.90
18297;DHT22;18066;52.106;5.534;2023-04-28T06:00:01;11.40;99.90
18297;DHT22;18066;52.106;5.534;2023-04-28T06:02:28;11.30;99.90
18297;DHT22;18066;52.106;5.534;2023-04-28T06:04:55;11.40;99.90
18297;DHT22;18066;52.106;5.534;2023-04-28T06:07:21;11.40;99.90
18297;DHT22;18066;52.106;5.534;2023-04-28T06:09:48;11.50;99.90
18297;DHT22;18066;52.106;5.534;2023-04-28T06:12:15;11.60;99.90
18297;DHT22;18066;52.106;5.534;2023-04-28T06:14:42;11.80;99.90
18297;DHT22;18066;52.106;5.534;2023-04-28T06:17:10;11.70;99.90
18297;DHT22;18066;52.106;5.534;2023-04-28T06:19:37;11.60;99.90
18297;DHT22;18066;52.106;5.534;2023-04-28T06:22:04;11.50;99.90
18297;DHT22;18066;52.106;5.534;2023-04-28T06:24:30;11.50;99.90
18297;DHT22;18066;52.106;5.534;2023-04-28T06:26:57;11.40;99.90
18297;DHT22;18066;52.106;5.534;2023-04-28T06:29:24;11.50;99.90
18297;DHT22;18066;52.106;5.534;2023-04-28T06:31:52;11.60;99.90
18297;DHT22;18066;52.106;5.534;2023-04-28T06:34:23;11.70;99.90
18297;DHT22;18066;52.106;5.534;2023-04-28T06:36:51;11.90;99.90
18297;DHT22;18066;52.106;5.534;2023-04-28T06:39:18;11.90;99.90
18297;DHT22;18066;52.106;5.534;2023-04-28T06:41:45;12.10;99.90
18297;DHT22;18066;52.106;5.534;2023-04-28T06:44:12;12.20;99.90
18297;DHT22;18066;52.106;5.534;2023-04-28T06:46:39;12.40;99.90
18297;DHT22;18066;52.106;5.534;2023-04-28T06:49:06;12.60;99.90
18297;DHT22;18066;52.106;5.534;2023-04-28T06:51:34;12.60;99.90
18297;DHT22;18066;52.106;5.534;2023-04-28T06:54:01;12.80;99.90
18297;DHT22;18066;52.106;5.534;2023-04-28T06:56:28;12.90;99.90
18297;DHT22;18066;52.106;5.534;2023-04-28T06:58:55;13.00;99.90
18297;DHT22;18066;52.106;5.534;2023-04-28T07:01:22;12.90;99.90
18297;DHT22;18066;52.106;5.534;2023-04-28T07:03:48;12.90;99.90
18297;DHT22;18066;52.106;5.534;2023-04-28T07:06:15;12.80;99.90
18297;DHT22;18066;52.106;5.534;2023-04-28T07:08:44;12.90;99.90
18297;DHT22;18066;52.106;5.534;2023-04-28T07:11:11;13.00;99.90
18297;DHT22;18066;52.106;5.534;2023-04-28T07:13:37;13.00;99.90
18297;DHT22;18066;52.106;5.534;2023-04-28T07:16:04;13.10;99.90
18297;DHT22;18066;52.106;5.534;2023-04-28T07:18:31;13.10;99.90
18297;DHT22;18066;52.106;5.534;2023-04-28T07:20:58;13.20;99.90
18297;DHT22;18066;52.106;5.534;2023-04-28T07:23:25;13.20;99.90
18297;DHT22;18066;52.106;5.534;2023-04-28T07:25:53;13.20;99.90
18297;DHT22;18066;52.106;5.534;2023-04-28T07:28:20;13.30;99.90
18297;DHT22;18066;52.106;5.534;2023-04-28T07:30:47;13.40;99.90
18297;DHT22;18066;52.106;5.534;2023-04-28T07:33:13;13.50;99.90
18297;DHT22;18066;52.106;5.534;2023-04-28T07:35:40;13.60;99.90
18297;DHT22;18066;52.106;5.534;2023-04-28T07:38:07;13.60;99.90
18297;DHT22;18066;52.106;5.534;2023-04-28T07:40:34;13.70;99.90
18297;DHT22;18066;52.106;5.534;2023-04-28T07:43:02;13.70;99.90
18297;DHT22;18066;52.106;5.534;2023-04-28T07:45:29;13.70;99.90
18297;DHT22;18066;52.106;5.534;2023-04-28T07:47:56;13.70;99.90
18297;DHT22;18066;52.106;5.534;2023-04-28T07:50:23;13.80;99.90
18297;DHT22;18066;52.106;5.534;2023-04-28T07:52:50;13.80;99.90
18297;DHT22;18066;52.106;5.534;2023-04-28T07:55:17;14.00;99.90
18297;DHT22;18066;52.106;5.534;2023-04-28T07:57:44;14.00;99.90
18297;DHT22;18066;52.106;5.534;2023-04-28T08:00:13;14.10;99.90
18297;DHT22;18066;52.106;5.534;2023-04-28T08:02:40;14.20;99.90
18297;DHT22;18066;52.106;5.534;2023-04-28T08:05:07;14.20;99.90
18297;DHT22;18066;52.106;5.534;2023-04-28T08:07:35;14.50;99.90
18297;DHT22;18066;52.106;5.534;2023-04-28T08:10:02;14.50;99.90
18297;DHT22;18066;52.106;5.534;2023-04-28T08:12:29;14.50;99.90
18297;DHT22;18066;52.106;5.534;2023-04-28T08:14:57;14.60;99.90
18297;DHT22;18066;52.106;5.534;2023-04-28T08:17:25;14.60;99.90
18297;DHT22;18066;52.106;5.534;2023-04-28T08:19:52;14.60;99.90
18297;DHT22;18066;52.106;5.534;2023-04-28T08:22:18;14.60;99.90
18297;DHT22;18066;52.106;5.534;2023-04-28T08:24:45;14.60;99.90
18297;DHT22;18066;52.106;5.534;2023-04-28T08:27:12;14.70;99.90
18297;DHT22;18066;52.106;5.534;2023-04-28T08:29:39;14.60;99.90
18297;DHT22;18066;52.106;5.534;2023-04-28T08:32:06;14.60;99.90
18297;DHT22;18066;52.106;5.534;2023-04-28T08:34:34;14.50;99.90
18297;DHT22;18066;52.106;5.534;2023-04-28T08:37:01;14.40;99.90
18297;DHT22;18066;52.106;5.534;2023-04-28T08:39:28;14.20;99.90
18297;DHT22;18066;52.106;5.534;2023-04-28T08:41:56;14.10;99.90
18297;DHT22;18066;52.106;5.534;2023-04-28T08:44:22;13.90;99.90
18297;DHT22;18066;52.106;5.534;2023-04-28T08:46:53;13.90;99.90
18297;DHT22;18066;52.106;5.534;2023-04-28T08:49:29;13.90;99.90
18297;DHT22;18066;52.106;5.534;2023-04-28T08:51:59;14.00;99.90
18297;DHT22;18066;52.106;5.534;2023-04-28T08:54:28;14.10;99.90
18297;DHT22;18066;52.106;5.534;2023-04-28T08:56:56;14.30;99.90
18297;DHT22;18066;52.106;5.534;2023-04-28T08:59:23;14.60;99.90
18297;DHT22;18066;52.106;5.534;2023-04-28T09:01:50;14.90;99.90
18297;DHT22;18066;52.106;5.534;2023-04-28T09:04:17;15.20;99.90
18297;DHT22;18066;52.106;5.534;2023-04-28T09:06:44;15.20;99.90
18297;DHT22;18066;52.106;5.534;2023-04-28T09:09:22;15.30;99.90
18297;DHT22;18066;52.106;5.534;2023-04-28T09:11:56;15.40;99.90
18297;DHT22;18066;52.106;5.534;2023-04-28T09:14:24;15.40;99.90
18297;DHT22;18066;52.106;5.534;2023-04-28T09:16:52;15.30;99.90
18297;DHT22;18066;52.106;5.534;2023-04-28T09:19:19;15.40;99.90
18297;DHT22;18066;52.106;5.534;2023-04-28T09:21:47;15.20;99.90
18297;DHT22;18066;52.106;5.534;2023-04-28T09:24:32;15.20;99.90
18297;DHT22;18066;52.106;5.534;2023-04-28T09:26:59;15.10;99.90
18297;DHT22;18066;52.106;5.534;2023-04-28T09:29:26;15.10;99.90
18297;DHT22;18066;52.106;5.534;2023-04-28T09:31:54;14.90;99.90
18297;DHT22;18066;52.106;5.534;2023-04-28T09:34:42;14.70;99.90
18297;DHT22;18066;52.106;5.534;2023-04-28T09:37:14;14.80;99.90
18297;DHT22;18066;52.106;5.534;2023-04-28T09:39:43;14.70;99.90
18297;DHT22;18066;52.106;5.534;2023-04-28T09:42:13;14.70;99.90
18297;DHT22;18066;52.106;5.534;2023-04-28T09:44:56;14.60;99.90
18297;DHT22;18066;52.106;5.534;2023-04-28T09:47:23;14.60;99.90
18297;DHT22;18066;52.106;5.534;2023-04-28T09:49:53;14.70;99.90
18297;DHT22;18066;52.106;5.534;2023-04-28T09:52:21;14.80;99.90
18297;DHT22;18066;52.106;5.534;2023-04-28T09:54:51;14.90;99.90
18297;DHT22;18066;52.106;5.534;2023-04-28T09:57:19;15.00;99.90
18297;DHT22;18066;52.106;5.534;2023-04-28T09:59:47;15.10;99.90
18297;DHT22;18066;52.106;5.534;2023-04-28T10:02:15;15.10;99.90
18297;DHT22;18066;52.106;5.534;2023-04-28T10:04:43;15.20;99.90
18297;DHT22;18066;52.106;5.534;2023-04-28T10:07:11;15.40;99.90
18297;DHT22;18066;52.106;5.534;2023-04-28T10:09:39;15.40;99.90
18297;DHT22;18066;52.106;5.534;2023-04-28T10:12:10;15.60;99.90
18297;DHT22;18066;52.106;5.534;2023-04-28T10:14:37;15.50;99.90
18297;DHT22;18066;52.106;5.534;2023-04-28T10:17:04;15.40;99.90
18297;DHT22;18066;52.106;5.534;2023-04-28T10:19:32;15.20;99.90
18297;DHT22;18066;52.106;5.534;2023-04-28T10:22:09;15.20;99.90
18297;DHT22;18066;52.106;5.534;2023-04-28T10:24:52;15.30;99.90
18297;DHT22;18066;52.106;5.534;2023-04-28T10:27:29;15.30;99.90
18297;DHT22;18066;52.106;5.534;2023-04-28T10:30:09;15.20;99.90
18297;DHT22;18066;52.106;5.534;2023-04-28T10:32:36;15.20;99.90
18297;DHT22;18066;52.106;5.534;2023-04-28T10:35:39;15.20;99.90
18297;DHT22;18066;52.106;5.534;2023-04-28T10:38:08;15.10;99.90
18297;DHT22;18066;52.106;5.534;2023-04-28T10:40:36;14.90;99.90
18297;DHT22;18066;52.106;5.534;2023-04-28T10:43:05;14.90;99.90
18297;DHT22;18066;52.106;5.534;2023-04-28T10:45:57;14.90;99.90
18297;DHT22;18066;52.106;5.534;2023-04-28T10:51:32;14.70;99.90
18297;DHT22;18066;52.106;5.534;2023-04-28T10:54:17;14.70;99.90
18297;DHT22;18066;52.106;5.534;2023-04-28T10:57:19;14.50;99.90
18297;DHT22;18066;52.106;5.534;2023-04-28T10:59:48;14.50;99.90
18297;DHT22;18066;52.106;5.534;2023-04-28T11:02:34;14.40;99.90
18297;DHT22;18066;52.106;5.534;2023-04-28T11:05:18;14.50;99.90
18297;DHT22;18066;52.106;5.534;2023-04-28T11:11:14;14.70;99.90
18297;DHT22;18066;52.106;5.534;2023-04-28T11:13:42;14.60;99.90
18297;DHT22;18066;52.106;5.534;2023-04-28T11:16:14;14.60;99.90
18297;DHT22;18066;52.106;5.534;2023-04-28T11:18:49;14.60;99.90
18297;DHT22;18066;52.106;5.534;2023-04-28T11:21:16;14.70;99.90
18297;DHT22;18066;52.106;5.534;2023-04-28T11:23:44;14.60;99.90
18297;DHT22;18066;52.106;5.534;2023-04-28T11:26:11;14.50;99.90
18297;DHT22;18066;52.106;5.534;2023-04-28T11:28:46;14.50;99.90
18297;DHT22;18066;52.106;5.534;2023-04-28T11:31:16;14.40;99.90
18297;DHT22;18066;52.106;5.534;2023-04-28T11:33:46;14.30;99.90
18297;DHT22;18066;52.106;5.534;2023-04-28T11:36:22;14.30;99.90
18297;DHT22;18066;52.106;5.534;2023-04-28T11:38:49;14.10;99.90
18297;DHT22;18066;52.106;5.534;2023-04-28T11:41:16;14.00;99.90
18297;DHT22;18066;52.106;5.534;2023-04-28T11:43:42;14.00;99.90
18297;DHT22;18066;52.106;5.534;2023-04-28T11:46:09;14.20;99.90
18297;DHT22;18066;52.106;5.534;2023-04-28T11:48:42;14.40;99.90
18297;DHT22;18066;52.106;5.534;2023-04-28T11:51:09;14.60;99.90
18297;DHT22;18066;52.106;5.534;2023-04-28T11:53:42;14.70;99.90
18297;DHT22;18066;52.106;5.534;2023-04-28T11:56:09;14.90;99.90
18297;DHT22;18066;52.106;5.534;2023-04-28T11:58:37;14.90;99.90
18297;DHT22;18066;52.106;5.534;2023-04-28T12:01:08;14.80;99.90
18297;DHT22;18066;52.106;5.534;2023-04-28T12:03:43;14.70;99.90
18297;DHT22;18066;52.106;5.534;2023-04-28T12:06:10;14.60;99.90
18297;DHT22;18066;52.106;5.534;2023-04-28T12:08:37;14.50;99.90
18297;DHT22;18066;52.106;5.534;2023-04-28T12:11:07;14.40;99.90
18297;DHT22;18066;52.106;5.534;2023-04-28T12:13:34;14.30;99.90
18297;DHT22;18066;52.106;5.534;2023-04-28T12:16:03;14.30;99.90
18297;DHT22;18066;52.106;5.534;2023-04-28T12:18:31;14.20;99.90
18297;DHT22;18066;52.106;5.534;2023-04-28T12:20:59;14.00;99.90
18297;DHT22;18066;52.106;5.534;2023-04-28T12:23:30;13.90;99.90
18297;DHT22;18066;52.106;5.534;2023-04-28T12:25:57;13.80;99.90
18297;DHT22;18066;52.106;5.534;2023-04-28T12:28:35;13.80;99.90
18297;DHT22;18066;52.106;5.534;2023-04-28T12:31:04;13.90;99.90
18297;DHT22;18066;52.106;5.534;2023-04-28T12:33:31;14.00;99.90
18297;DHT22;18066;52.106;5.534;2023-04-28T12:36:03;14.00;99.90
18297;DHT22;18066;52.106;5.534;2023-04-28T12:38:31;14.00;99.90
18297;DHT22;18066;52.106;5.534;2023-04-28T12:40:58;14.10;99.90
18297;DHT22;18066;52.106;5.534;2023-04-28T12:43:25;14.10;99.90
18297;DHT22;18066;52.106;5.534;2023-04-28T12:45:53;14.30;99.90
18297;DHT22;18066;52.106;5.534;2023-04-28T12:48:21;14.30;99.90
18297;DHT22;18066;52.106;5.534;2023-04-28T12:50:49;14.30;99.90
18297;DHT22;18066;52.106;5.534;2023-04-28T12:53:17;14.40;99.90
18297;DHT22;18066;52.106;5.534;2023-04-28T12:55:44;14.30;99.90
18297;DHT22;18066;52.106;5.534;2023-04-28T12:58:11;14.20;99.90
18297;DHT22;18066;52.106;5.534;2023-04-28T13:00:38;14.10;99.90
18297;DHT22;18066;52.106;5.534;2023-04-28T13:03:06;14.00;99.90
18297;DHT22;18066;52.106;5.534;2023-04-28T13:05:33;14.20;99.90
18297;DHT22;18066;52.106;5.534;2023-04-28T13:07:59;14.30;99.90
18297;DHT22;18066;52.106;5.534;2023-04-28T13:10:28;14.50;99.90
18297;DHT22;18066;52.106;5.534;2023-04-28T13:12:54;14.50;99.90
18297;DHT22;18066;52.106;5.534;2023-04-28T13:15:21;14.40;99.90
18297;DHT22;18066;52.106;5.534;2023-04-28T13:17:48;14.40;99.90
18297;DHT22;18066;52.106;5.534;2023-04-28T13:20:15;14.40;99.90
18297;DHT22;18066;52.106;5.534;2023-04-28T13:22:42;14.40;99.90
18297;DHT22;18066;52.106;5.534;2023-04-28T13:25:09;14.40;99.90
18297;DHT22;18066;52.106;5.534;2023-04-28T13:27:37;14.40;99.90
18297;DHT22;18066;52.106;5.534;2023-04-28T13:30:05;14.40;99.90
18297;DHT22;18066;52.106;5.534;2023-04-28T13:32:33;14.50;99.90
18297;DHT22;18066;52.106;5.534;2023-04-28T13:35:00;14.50;99.90
18297;DHT22;18066;52.106;5.534;2023-04-28T13:37:27;14.20;99.90
18297;DHT22;18066;52.106;5.534;2023-04-28T13:39:53;14.30;99.90
18297;DHT22;18066;52.106;5.534;2023-04-28T13:42:20;14.30;99.90
18297;DHT22;18066;52.106;5.534;2023-04-28T13:44:48;14.30;99.90
18297;DHT22;18066;52.106;5.534;2023-04-28T13:47:16;14.40;99.90
18297;DHT22;18066;52.106;5.534;2023-04-28T13:49:42;14.40;99.90
18297;DHT22;18066;52.106;5.534;2023-04-28T13:52:09;14.30;99.90
18297;DHT22;18066;52.106;5.534;2023-04-28T13:54:36;14.40;99.90
18297;DHT22;18066;52.106;5.534;2023-04-28T13:57:03;14.40;99.90
18297;DHT22;18066;52.106;5.534;2023-04-28T13:59:29;14.60;99.90
18297;DHT22;18066;52.106;5.534;2023-04-28T14:01:58;14.60;99.90
18297;DHT22;18066;52.106;5.534;2023-04-28T14:04:25;14.60;99.90
18297;DHT22;18066;52.106;5.534;2023-04-28T14:06:52;14.50;99.90
18297;DHT22;18066;52.106;5.534;2023-04-28T14:09:18;14.40;99.90
18297;DHT22;18066;52.106;5.534;2023-04-28T14:11:45;14.30;99.90
18297;DHT22;18066;52.106;5.534;2023-04-28T14:14:12;14.30;99.90
18297;DHT22;18066;52.106;5.534;2023-04-28T14:16:39;14.20;99.90
18297;DHT22;18066;52.106;5.534;2023-04-28T14:19:07;14.10;99.90
18297;DHT22;18066;52.106;5.534;2023-04-28T14:21:35;14.00;99.90
18297;DHT22;18066;52.106;5.534;2023-04-28T14:24:02;14.10;99.90
18297;DHT22;18066;52.106;5.534;2023-04-28T14:26:28;14.00;99.90
18297;DHT22;18066;52.106;5.534;2023-04-28T14:28:55;14.00;99.90
18297;DHT22;18066;52.106;5.534;2023-04-28T14:31:22;14.00;99.90
18297;DHT22;18066;52.106;5.534;2023-04-28T14:33:49;13.90;99.90
18297;DHT22;18066;52.106;5.534;2023-04-28T14:36:17;13.90;99.90
18297;DHT22;18066;52.106;5.534;2023-04-28T14:38:44;13.90;99.90
18297;DHT22;18066;52.106;5.534;2023-04-28T14:41:11;13.80;99.90
18297;DHT22;18066;52.106;5.534;2023-04-28T14:43:38;13.90;99.90
18297;DHT22;18066;52.106;5.534;2023-04-28T14:46:05;13.80;99.90
18297;DHT22;18066;52.106;5.534;2023-04-28T14:48:32;13.70;99.90
18297;DHT22;18066;52.106;5.534;2023-04-28T14:51:00;13.70;99.90
18297;DHT22;18066;52.106;5.534;2023-04-28T14:53:28;13.70;99.90
18297;DHT22;18066;52.106;5.534;2023-04-28T14:55:56;13.60;99.90
18297;DHT22;18066;52.106;5.534;2023-04-28T14:58:24;13.70;99.90
18297;DHT22;18066;52.106;5.534;2023-04-28T15:00:50;13.70;99.90
18297;DHT22;18066;52.106;5.534;2023-04-28T15:03:17;13.80;99.90
18297;DHT22;18066;52.106;5.534;2023-04-28T15:05:44;13.90;99.90
18297;DHT22;18066;52.106;5.534;2023-04-28T15:08:11;13.80;99.90
18297;DHT22;18066;52.106;5.534;2023-04-28T15:10:39;13.90;99.90
18297;DHT22;18066;52.106;5.534;2023-04-28T15:13:06;14.00;99.90
18297;DHT22;18066;52.106;5.534;2023-04-28T15:15:34;13.90;99.90
18297;DHT22;18066;52.106;5.534;2023-04-28T15:18:01;14.00;99.90
18297;DHT22;18066;52.106;5.534;2023-04-28T15:20:29;14.00;99.90
18297;DHT22;18066;52.106;5.534;2023-04-28T15:22:57;13.80;99.90
18297;DHT22;18066;52.106;5.534;2023-04-28T15:25:24;14.00;99.90
18297;DHT22;18066;52.106;5.534;2023-04-28T15:27:53;14.00;99.90
18297;DHT22;18066;52.106;5.534;2023-04-28T15:30:20;13.90;99.90
18297;DHT22;18066;52.106;5.534;2023-04-28T15:32:48;13.90;99.90
18297;DHT22;18066;52.106;5.534;2023-04-28T15:35:15;13.90;99.90
18297;DHT22;18066;52.106;5.534;2023-04-28T15:37:43;13.90;99.90
18297;DHT22;18066;52.106;5.534;2023-04-28T15:40:13;13.90;99.90
18297;DHT22;18066;52.106;5.534;2023-04-28T15:42:40;13.90;99.90
18297;DHT22;18066;52.106;5.534;2023-04-28T15:45:11;13.90;99.90